sensor_id;sensor_type;location;lat;lon;timestamp;P1;durP1;ratioP1;P2;durP2;ratioP2
12363;SDS011;6246;50.826;4.712;2024-03-17T00:02:21;21.27;;;16.17;;
12363;SDS011;6246;50.826;4.712;2024-03-17T00:04:47;19.37;;;14.47;;
12363;SDS011;6246;50.826;4.712;2024-03-17T00:07:13;20.10;;;15.40;;
12363;SDS011;6246;50.826;4.712;2024-03-17T00:09:39;19.33;;;14.67;;
12363;SDS011;6246;50.826;4.712;2024-03-17T00:12:05;18.73;;;14.33;;
12363;SDS011;6246;50.826;4.712;2024-03-17T00:14:32;19.27;;;14.50;;
12363;SDS011;6246;50.826;4.712;2024-03-17T00:16:59;16.43;;;12.63;;
12363;SDS011;6246;50.826;4.712;2024-03-17T00:19:25;16.70;;;12.80;;
12363;SDS011;6246;50.826;4.712;2024-03-17T00:21:51;18.43;;;13.77;;
12363;SDS011;6246;50.826;4.712;2024-03-17T00:24:18;16.90;;;12.90;;
12363;SDS011;6246;50.826;4.712;2024-03-17T00:26:45;18.37;;;13.20;;
12363;SDS011;6246;50.826;4.712;2024-03-17T00:29:11;15.73;;;11.90;;
12363;SDS011;6246;50.826;4.712;2024-03-17T00:31:37;14.97;;;12.10;;
12363;SDS011;6246;50.826;4.712;2024-03-17T00:34:03;17.53;;;12.03;;
12363;SDS011;6246;50.826;4.712;2024-03-17T00:36:29;15.63;;;11.87;;
12363;SDS011;6246;50.826;4.712;2024-03-17T00:38:56;14.23;;;11.07;;
12363;SDS011;6246;50.826;4.712;2024-03-17T00:41:22;14.67;;;11.10;;
12363;SDS011;6246;50.826;4.712;2024-03-17T00:43:49;15.00;;;11.17;;
12363;SDS011;6246;50.826;4.712;2024-03-17T00:46:16;14.80;;;10.80;;
12363;SDS011;6246;50.826;4.712;2024-03-17T00:48:42;14.57;;;10.83;;
12363;SDS011;6246;50.826;4.712;2024-03-17T00:51:09;14.50;;;11.07;;
12363;SDS011;6246;50.826;4.712;2024-03-17T00:53:35;12.27;;;9.43;;
12363;SDS011;6246;50.826;4.712;2024-03-17T00:56:00;12.87;;;9.80;;
12363;SDS011;6246;50.826;4.712;2024-03-17T00:58:27;13.30;;;9.87;;
12363;SDS011;6246;50.826;4.712;2024-03-17T01:00:53;13.07;;;9.53;;
12363;SDS011;6246;50.826;4.712;2024-03-17T01:03:19;14.93;;;9.47;;
12363;SDS011;6246;50.826;4.712;2024-03-17T01:05:45;12.37;;;9.07;;
12363;SDS011;6246;50.826;4.712;2024-03-17T01:08:16;13.10;;;9.70;;
12363;SDS011;6246;50.826;4.712;2024-03-17T01:10:43;11.47;;;8.80;;
12363;SDS011;6246;50.826;4.712;2024-03-17T01:13:10;12.83;;;9.27;;
12363;SDS011;6246;50.826;4.712;2024-03-17T01:15:36;13.00;;;8.97;;
12363;SDS011;6246;50.826;4.712;2024-03-17T01:18:05;11.20;;;8.33;;
12363;SDS011;6246;50.826;4.712;2024-03-17T01:20:32;9.87;;;7.63;;
12363;SDS011;6246;50.826;4.712;2024-03-17T01:22:58;10.60;;;7.97;;
12363;SDS011;6246;50.826;4.712;2024-03-17T01:25:24;10.23;;;7.83;;
12363;SDS011;6246;50.826;4.712;2024-03-17T01:27:51;10.27;;;7.70;;
12363;SDS011;6246;50.826;4.712;2024-03-17T01:30:17;9.17;;;6.67;;
12363;SDS011;6246;50.826;4.712;2024-03-17T01:32:47;11.50;;;8.03;;
12363;SDS011;6246;50.826;4.712;2024-03-17T01:35:14;10.53;;;8.00;;
12363;SDS011;6246;50.826;4.712;2024-03-17T01:37:40;9.80;;;7.30;;
12363;SDS011;6246;50.826;4.712;2024-03-17T01:40:06;9.87;;;7.13;;
12363;SDS011;6246;50.826;4.712;2024-03-17T01:42:34;11.73;;;7.20;;
12363;SDS011;6246;50.826;4.712;2024-03-17T01:45:00;9.70;;;7.03;;
12363;SDS011;6246;50.826;4.712;2024-03-17T01:47:26;9.80;;;7.20;;
12363;SDS011;6246;50.826;4.712;2024-03-17T01:49:52;10.27;;;7.30;;
12363;SDS011;6246;50.826;4.712;2024-03-17T01:52:19;9.90;;;7.20;;
12363;SDS011;6246;50.826;4.712;2024-03-17T01:54:46;9.43;;;6.70;;
12363;SDS011;6246;50.826;4.712;2024-03-17T01:57:12;10.47;;;6.80;;
12363;SDS011;6246;50.826;4.712;2024-03-17T01:59:39;8.57;;;6.23;;
12363;SDS011;6246;50.826;4.712;2024-03-17T02:02:05;8.70;;;6.73;;
12363;SDS011;6246;50.826;4.712;2024-03-17T02:04:31;9.10;;;6.83;;
12363;SDS011;6246;50.826;4.712;2024-03-17T02:06:57;10.13;;;6.40;;
12363;SDS011;6246;50.826;4.712;2024-03-17T02:09:23;10.30;;;6.40;;
12363;SDS011;6246;50.826;4.712;2024-03-17T02:11:50;8.43;;;6.77;;
12363;SDS011;6246;50.826;4.712;2024-03-17T02:14:16;9.93;;;7.07;;
12363;SDS011;6246;50.826;4.712;2024-03-17T02:16:42;8.80;;;6.53;;
12363;SDS011;6246;50.826;4.712;2024-03-17T02:19:08;8.20;;;6.10;;
12363;SDS011;6246;50.826;4.712;2024-03-17T02:21:34;7.93;;;6.07;;
12363;SDS011;6246;50.826;4.712;2024-03-17T02:24:02;8.17;;;6.10;;
12363;SDS011;6246;50.826;4.712;2024-03-17T02:26:32;7.37;;;6.10;;
12363;SDS011;6246;50.826;4.712;2024-03-17T02:28:58;7.13;;;5.80;;
12363;SDS011;6246;50.826;4.712;2024-03-17T02:31:24;6.50;;;5.20;;
12363;SDS011;6246;50.826;4.712;2024-03-17T02:33:50;8.53;;;6.33;;
12363;SDS011;6246;50.826;4.712;2024-03-17T02:36:16;7.80;;;5.80;;
12363;SDS011;6246;50.826;4.712;2024-03-17T02:38:42;8.27;;;5.60;;
12363;SDS011;6246;50.826;4.712;2024-03-17T02:41:27;7.83;;;5.57;;
12363;SDS011;6246;50.826;4.712;2024-03-17T02:43:53;7.37;;;5.60;;
12363;SDS011;6246;50.826;4.712;2024-03-17T02:46:20;6.53;;;5.37;;
12363;SDS011;6246;50.826;4.712;2024-03-17T02:48:49;6.67;;;5.40;;
12363;SDS011;6246;50.826;4.712;2024-03-17T02:51:18;8.10;;;5.50;;
12363;SDS011;6246;50.826;4.712;2024-03-17T02:53:45;7.27;;;5.47;;
12363;SDS011;6246;50.826;4.712;2024-03-17T02:56:11;7.00;;;5.33;;
12363;SDS011;6246;50.826;4.712;2024-03-17T02:58:38;7.57;;;5.47;;
12363;SDS011;6246;50.826;4.712;2024-03-17T03:01:04;6.77;;;5.27;;
12363;SDS011;6246;50.826;4.712;2024-03-17T03:03:31;7.50;;;5.27;;
12363;SDS011;6246;50.826;4.712;2024-03-17T03:05:57;6.03;;;5.17;;
12363;SDS011;6246;50.826;4.712;2024-03-17T03:08:25;6.90;;;5.23;;
12363;SDS011;6246;50.826;4.712;2024-03-17T03:10:52;6.83;;;5.20;;
12363;SDS011;6246;50.826;4.712;2024-03-17T03:13:18;7.63;;;5.23;;
12363;SDS011;6246;50.826;4.712;2024-03-17T03:15:46;5.50;;;4.47;;
12363;SDS011;6246;50.826;4.712;2024-03-17T03:18:13;7.50;;;5.00;;
12363;SDS011;6246;50.826;4.712;2024-03-17T03:20:39;6.17;;;4.90;;
12363;SDS011;6246;50.826;4.712;2024-03-17T03:23:05;6.30;;;4.93;;
12363;SDS011;6246;50.826;4.712;2024-03-17T03:25:31;5.80;;;4.70;;
12363;SDS011;6246;50.826;4.712;2024-03-17T03:27:57;6.83;;;5.10;;
12363;SDS011;6246;50.826;4.712;2024-03-17T03:30:23;5.27;;;4.50;;
12363;SDS011;6246;50.826;4.712;2024-03-17T03:32:49;5.37;;;4.57;;
12363;SDS011;6246;50.826;4.712;2024-03-17T03:35:15;5.80;;;4.63;;
12363;SDS011;6246;50.826;4.712;2024-03-17T03:37:42;6.00;;;4.70;;
12363;SDS011;6246;50.826;4.712;2024-03-17T03:40:08;6.17;;;4.63;;
12363;SDS011;6246;50.826;4.712;2024-03-17T03:42:43;5.00;;;4.10;;
12363;SDS011;6246;50.826;4.712;2024-03-17T03:45:10;4.77;;;4.27;;
12363;SDS011;6246;50.826;4.712;2024-03-17T03:47:42;5.93;;;4.63;;
12363;SDS011;6246;50.826;4.712;2024-03-17T03:50:15;5.10;;;4.40;;
12363;SDS011;6246;50.826;4.712;2024-03-17T03:52:41;7.23;;;4.90;;
12363;SDS011;6246;50.826;4.712;2024-03-17T03:55:07;10.77;;;4.97;;
12363;SDS011;6246;50.826;4.712;2024-03-17T03:57:38;5.60;;;4.40;;
12363;SDS011;6246;50.826;4.712;2024-03-17T04:00:04;6.47;;;4.23;;
12363;SDS011;6246;50.826;4.712;2024-03-17T04:02:42;5.80;;;4.53;;
12363;SDS011;6246;50.826;4.712;2024-03-17T04:05:09;5.37;;;4.37;;
12363;SDS011;6246;50.826;4.712;2024-03-17T04:07:36;4.53;;;3.90;;
12363;SDS011;6246;50.826;4.712;2024-03-17T04:10:03;5.93;;;4.30;;
12363;SDS011;6246;50.826;4.712;2024-03-17T04:12:29;6.03;;;4.47;;
12363;SDS011;6246;50.826;4.712;2024-03-17T04:14:58;7.80;;;3.97;;
12363;SDS011;6246;50.826;4.712;2024-03-17T04:17:24;5.13;;;4.17;;
12363;SDS011;6246;50.826;4.712;2024-03-17T04:19:51;4.80;;;3.93;;
12363;SDS011;6246;50.826;4.712;2024-03-17T04:22:17;4.30;;;3.90;;
12363;SDS011;6246;50.826;4.712;2024-03-17T04:24:44;4.57;;;4.10;;
12363;SDS011;6246;50.826;4.712;2024-03-17T04:27:10;5.10;;;3.80;;
12363;SDS011;6246;50.826;4.712;2024-03-17T04:29:36;5.50;;;3.97;;
12363;SDS011;6246;50.826;4.712;2024-03-17T04:32:02;4.60;;;4.13;;
12363;SDS011;6246;50.826;4.712;2024-03-17T04:34:30;6.17;;;4.20;;
12363;SDS011;6246;50.826;4.712;2024-03-17T04:36:56;5.27;;;4.13;;
12363;SDS011;6246;50.826;4.712;2024-03-17T04:39:22;4.83;;;4.30;;
12363;SDS011;6246;50.826;4.712;2024-03-17T04:41:48;5.30;;;4.00;;
12363;SDS011;6246;50.826;4.712;2024-03-17T04:44:15;4.63;;;3.83;;
12363;SDS011;6246;50.826;4.712;2024-03-17T04:46:41;5.17;;;3.80;;
12363;SDS011;6246;50.826;4.712;2024-03-17T04:49:07;4.40;;;4.00;;
12363;SDS011;6246;50.826;4.712;2024-03-17T04:51:33;4.93;;;3.83;;
12363;SDS011;6246;50.826;4.712;2024-03-17T04:54:00;4.00;;;3.70;;
12363;SDS011;6246;50.826;4.712;2024-03-17T04:56:28;4.97;;;4.13;;
12363;SDS011;6246;50.826;4.712;2024-03-17T04:58:54;5.47;;;3.97;;
12363;SDS011;6246;50.826;4.712;2024-03-17T05:01:20;3.70;;;3.40;;
12363;SDS011;6246;50.826;4.712;2024-03-17T05:03:46;4.43;;;3.50;;
12363;SDS011;6246;50.826;4.712;2024-03-17T05:06:12;4.13;;;3.73;;
12363;SDS011;6246;50.826;4.712;2024-03-17T05:08:39;4.67;;;4.00;;
12363;SDS011;6246;50.826;4.712;2024-03-17T05:11:05;5.93;;;4.23;;
12363;SDS011;6246;50.826;4.712;2024-03-17T05:13:32;3.77;;;3.37;;
12363;SDS011;6246;50.826;4.712;2024-03-17T05:16:01;4.67;;;3.63;;
12363;SDS011;6246;50.826;4.712;2024-03-17T05:18:29;3.67;;;3.37;;
12363;SDS011;6246;50.826;4.712;2024-03-17T05:21:02;3.90;;;3.50;;
12363;SDS011;6246;50.826;4.712;2024-03-17T05:23:28;3.97;;;3.53;;
12363;SDS011;6246;50.826;4.712;2024-03-17T05:25:55;4.57;;;3.50;;
12363;SDS011;6246;50.826;4.712;2024-03-17T05:28:21;4.93;;;3.60;;
12363;SDS011;6246;50.826;4.712;2024-03-17T05:30:48;4.87;;;3.80;;
12363;SDS011;6246;50.826;4.712;2024-03-17T05:33:16;6.20;;;3.70;;
12363;SDS011;6246;50.826;4.712;2024-03-17T05:35:55;6.43;;;3.77;;
12363;SDS011;6246;50.826;4.712;2024-03-17T05:38:22;6.77;;;3.70;;
12363;SDS011;6246;50.826;4.712;2024-03-17T05:40:59;8.67;;;4.10;;
12363;SDS011;6246;50.826;4.712;2024-03-17T05:43:29;6.97;;;3.90;;
12363;SDS011;6246;50.826;4.712;2024-03-17T05:45:58;12.87;;;4.47;;
12363;SDS011;6246;50.826;4.712;2024-03-17T05:48:24;12.07;;;5.63;;
12363;SDS011;6246;50.826;4.712;2024-03-17T05:50:50;11.87;;;6.13;;
12363;SDS011;6246;50.826;4.712;2024-03-17T05:53:16;17.60;;;7.40;;
12363;SDS011;6246;50.826;4.712;2024-03-17T05:55:43;17.97;;;12.37;;
12363;SDS011;6246;50.826;4.712;2024-03-17T05:58:10;28.37;;;15.27;;
12363;SDS011;6246;50.826;4.712;2024-03-17T06:00:36;26.87;;;14.87;;
12363;SDS011;6246;50.826;4.712;2024-03-17T06:03:03;30.93;;;17.70;;
12363;SDS011;6246;50.826;4.712;2024-03-17T06:05:35;32.63;;;18.33;;
12363;SDS011;6246;50.826;4.712;2024-03-17T06:08:02;27.63;;;19.50;;
12363;SDS011;6246;50.826;4.712;2024-03-17T06:10:29;34.13;;;20.93;;
12363;SDS011;6246;50.826;4.712;2024-03-17T06:12:56;30.43;;;21.70;;
12363;SDS011;6246;50.826;4.712;2024-03-17T06:15:25;29.27;;;20.97;;
12363;SDS011;6246;50.826;4.712;2024-03-17T06:17:51;30.83;;;21.90;;
12363;SDS011;6246;50.826;4.712;2024-03-17T06:20:18;31.17;;;22.03;;
12363;SDS011;6246;50.826;4.712;2024-03-17T06:22:44;31.77;;;21.90;;
12363;SDS011;6246;50.826;4.712;2024-03-17T06:25:11;34.80;;;26.30;;
12363;SDS011;6246;50.826;4.712;2024-03-17T06:27:37;40.07;;;26.93;;
12363;SDS011;6246;50.826;4.712;2024-03-17T06:30:03;37.93;;;27.77;;
12363;SDS011;6246;50.826;4.712;2024-03-17T06:32:29;42.83;;;29.83;;
12363;SDS011;6246;50.826;4.712;2024-03-17T06:34:59;39.47;;;30.30;;
12363;SDS011;6246;50.826;4.712;2024-03-17T06:37:27;53.47;;;35.73;;
12363;SDS011;6246;50.826;4.712;2024-03-17T06:39:53;67.47;;;47.13;;
12363;SDS011;6246;50.826;4.712;2024-03-17T06:42:19;64.40;;;45.60;;
12363;SDS011;6246;50.826;4.712;2024-03-17T06:44:45;61.23;;;41.63;;
12363;SDS011;6246;50.826;4.712;2024-03-17T06:47:11;58.90;;;41.97;;
12363;SDS011;6246;50.826;4.712;2024-03-17T06:49:38;62.73;;;42.50;;
12363;SDS011;6246;50.826;4.712;2024-03-17T06:52:04;62.20;;;47.40;;
12363;SDS011;6246;50.826;4.712;2024-03-17T06:54:30;72.17;;;54.03;;
12363;SDS011;6246;50.826;4.712;2024-03-17T06:56:59;74.80;;;54.97;;
12363;SDS011;6246;50.826;4.712;2024-03-17T06:59:25;82.60;;;61.83;;
12363;SDS011;6246;50.826;4.712;2024-03-17T07:01:51;85.20;;;61.97;;
12363;SDS011;6246;50.826;4.712;2024-03-17T07:04:17;88.93;;;64.60;;
12363;SDS011;6246;50.826;4.712;2024-03-17T07:06:43;84.67;;;64.17;;
12363;SDS011;6246;50.826;4.712;2024-03-17T07:09:09;83.47;;;65.17;;
12363;SDS011;6246;50.826;4.712;2024-03-17T07:11:35;90.87;;;71.80;;
12363;SDS011;6246;50.826;4.712;2024-03-17T07:14:01;90.50;;;72.63;;
12363;SDS011;6246;50.826;4.712;2024-03-17T07:16:27;96.17;;;73.93;;
12363;SDS011;6246;50.826;4.712;2024-03-17T07:18:56;99.87;;;76.43;;
12363;SDS011;6246;50.826;4.712;2024-03-17T07:21:24;95.63;;;77.73;;
12363;SDS011;6246;50.826;4.712;2024-03-17T07:23:50;97.87;;;77.40;;
12363;SDS011;6246;50.826;4.712;2024-03-17T07:26:16;105.57;;;79.50;;
12363;SDS011;6246;50.826;4.712;2024-03-17T07:28:42;105.90;;;82.97;;
12363;SDS011;6246;50.826;4.712;2024-03-17T07:31:09;102.07;;;81.57;;
12363;SDS011;6246;50.826;4.712;2024-03-17T07:33:36;100.43;;;81.03;;
12363;SDS011;6246;50.826;4.712;2024-03-17T07:36:02;106.50;;;82.93;;
12363;SDS011;6246;50.826;4.712;2024-03-17T07:38:30;109.93;;;86.73;;
12363;SDS011;6246;50.826;4.712;2024-03-17T07:40:57;107.07;;;85.23;;
12363;SDS011;6246;50.826;4.712;2024-03-17T07:43:24;102.57;;;85.30;;
12363;SDS011;6246;50.826;4.712;2024-03-17T07:46:03;105.57;;;84.40;;
12363;SDS011;6246;50.826;4.712;2024-03-17T07:48:33;111.37;;;87.13;;
12363;SDS011;6246;50.826;4.712;2024-03-17T07:51:00;107.63;;;84.63;;
12363;SDS011;6246;50.826;4.712;2024-03-17T07:53:28;111.10;;;88.33;;
12363;SDS011;6246;50.826;4.712;2024-03-17T07:55:58;111.40;;;88.33;;
12363;SDS011;6246;50.826;4.712;2024-03-17T07:58:24;106.50;;;86.23;;
12363;SDS011;6246;50.826;4.712;2024-03-17T08:00:51;101.60;;;84.17;;
12363;SDS011;6246;50.826;4.712;2024-03-17T08:03:18;102.60;;;86.10;;
12363;SDS011;6246;50.826;4.712;2024-03-17T08:05:47;105.23;;;85.03;;
12363;SDS011;6246;50.826;4.712;2024-03-17T08:08:14;104.23;;;85.67;;
12363;SDS011;6246;50.826;4.712;2024-03-17T08:10:40;106.93;;;86.60;;
12363;SDS011;6246;50.826;4.712;2024-03-17T08:13:06;99.97;;;83.00;;
12363;SDS011;6246;50.826;4.712;2024-03-17T08:15:34;103.70;;;82.77;;
12363;SDS011;6246;50.826;4.712;2024-03-17T08:18:00;101.70;;;84.93;;
12363;SDS011;6246;50.826;4.712;2024-03-17T08:20:26;101.70;;;82.03;;
12363;SDS011;6246;50.826;4.712;2024-03-17T08:22:52;103.93;;;82.70;;
12363;SDS011;6246;50.826;4.712;2024-03-17T08:25:18;100.23;;;83.13;;
12363;SDS011;6246;50.826;4.712;2024-03-17T08:27:45;102.27;;;81.27;;
12363;SDS011;6246;50.826;4.712;2024-03-17T08:30:11;99.93;;;80.40;;
12363;SDS011;6246;50.826;4.712;2024-03-17T08:32:43;100.23;;;79.27;;
12363;SDS011;6246;50.826;4.712;2024-03-17T08:35:10;95.73;;;78.30;;
12363;SDS011;6246;50.826;4.712;2024-03-17T08:37:36;96.40;;;78.97;;
12363;SDS011;6246;50.826;4.712;2024-03-17T08:40:02;94.30;;;77.50;;
12363;SDS011;6246;50.826;4.712;2024-03-17T08:42:31;97.23;;;78.73;;
12363;SDS011;6246;50.826;4.712;2024-03-17T08:44:57;93.47;;;74.73;;
12363;SDS011;6246;50.826;4.712;2024-03-17T08:47:23;93.90;;;74.93;;
12363;SDS011;6246;50.826;4.712;2024-03-17T08:49:52;95.67;;;75.87;;
12363;SDS011;6246;50.826;4.712;2024-03-17T08:52:18;89.67;;;72.73;;
12363;SDS011;6246;50.826;4.712;2024-03-17T08:54:47;92.13;;;74.77;;
12363;SDS011;6246;50.826;4.712;2024-03-17T08:57:13;90.37;;;72.60;;
12363;SDS011;6246;50.826;4.712;2024-03-17T08:59:39;89.70;;;72.87;;
12363;SDS011;6246;50.826;4.712;2024-03-17T09:02:05;87.80;;;71.67;;
12363;SDS011;6246;50.826;4.712;2024-03-17T09:04:36;85.40;;;68.13;;
12363;SDS011;6246;50.826;4.712;2024-03-17T09:07:02;85.70;;;71.07;;
12363;SDS011;6246;50.826;4.712;2024-03-17T09:09:29;88.20;;;70.50;;
12363;SDS011;6246;50.826;4.712;2024-03-17T09:11:55;83.57;;;65.83;;
12363;SDS011;6246;50.826;4.712;2024-03-17T09:14:21;80.07;;;63.90;;
12363;SDS011;6246;50.826;4.712;2024-03-17T09:16:47;84.47;;;66.87;;
12363;SDS011;6246;50.826;4.712;2024-03-17T09:19:13;82.37;;;65.17;;
12363;SDS011;6246;50.826;4.712;2024-03-17T09:21:39;81.53;;;65.63;;
12363;SDS011;6246;50.826;4.712;2024-03-17T09:24:06;79.60;;;62.23;;
12363;SDS011;6246;50.826;4.712;2024-03-17T09:26:36;80.83;;;64.33;;
12363;SDS011;6246;50.826;4.712;2024-03-17T09:29:05;86.07;;;65.37;;
12363;SDS011;6246;50.826;4.712;2024-03-17T09:31:31;77.70;;;61.53;;
12363;SDS011;6246;50.826;4.712;2024-03-17T09:34:00;71.53;;;57.70;;
12363;SDS011;6246;50.826;4.712;2024-03-17T09:36:26;71.80;;;58.37;;
12363;SDS011;6246;50.826;4.712;2024-03-17T09:38:52;73.67;;;58.33;;
12363;SDS011;6246;50.826;4.712;2024-03-17T09:41:22;76.00;;;58.87;;
12363;SDS011;6246;50.826;4.712;2024-03-17T09:43:50;72.43;;;57.90;;
12363;SDS011;6246;50.826;4.712;2024-03-17T09:46:16;70.30;;;56.07;;
12363;SDS011;6246;50.826;4.712;2024-03-17T09:48:43;70.20;;;55.57;;
12363;SDS011;6246;50.826;4.712;2024-03-17T09:51:09;72.87;;;57.50;;
12363;SDS011;6246;50.826;4.712;2024-03-17T09:53:41;70.80;;;55.00;;
12363;SDS011;6246;50.826;4.712;2024-03-17T09:58:33;68.00;;;52.97;;
12363;SDS011;6246;50.826;4.712;2024-03-17T10:00:59;66.93;;;51.43;;
12363;SDS011;6246;50.826;4.712;2024-03-17T10:06:14;65.27;;;50.43;;
12363;SDS011;6246;50.826;4.712;2024-03-17T10:08:43;63.73;;;50.87;;
12363;SDS011;6246;50.826;4.712;2024-03-17T10:11:10;65.80;;;50.50;;
12363;SDS011;6246;50.826;4.712;2024-03-17T10:13:36;60.63;;;48.27;;
12363;SDS011;6246;50.826;4.712;2024-03-17T10:16:03;62.53;;;49.80;;
12363;SDS011;6246;50.826;4.712;2024-03-17T10:18:29;60.43;;;47.63;;
12363;SDS011;6246;50.826;4.712;2024-03-17T10:20:56;61.70;;;49.17;;
12363;SDS011;6246;50.826;4.712;2024-03-17T10:23:23;62.63;;;48.20;;
12363;SDS011;6246;50.826;4.712;2024-03-17T10:25:49;59.67;;;47.50;;
12363;SDS011;6246;50.826;4.712;2024-03-17T10:28:16;59.33;;;46.83;;
12363;SDS011;6246;50.826;4.712;2024-03-17T10:30:42;58.00;;;45.90;;
12363;SDS011;6246;50.826;4.712;2024-03-17T10:33:22;54.83;;;43.57;;
12363;SDS011;6246;50.826;4.712;2024-03-17T10:35:57;56.27;;;45.20;;
12363;SDS011;6246;50.826;4.712;2024-03-17T10:38:25;55.57;;;44.13;;
12363;SDS011;6246;50.826;4.712;2024-03-17T10:40:52;55.83;;;44.10;;
12363;SDS011;6246;50.826;4.712;2024-03-17T10:43:19;53.10;;;42.30;;
12363;SDS011;6246;50.826;4.712;2024-03-17T10:45:53;51.73;;;41.73;;
12363;SDS011;6246;50.826;4.712;2024-03-17T10:48:20;54.13;;;42.17;;
12363;SDS011;6246;50.826;4.712;2024-03-17T10:50:47;55.07;;;41.73;;
12363;SDS011;6246;50.826;4.712;2024-03-17T10:53:14;52.87;;;41.47;;
12363;SDS011;6246;50.826;4.712;2024-03-17T10:58:13;54.07;;;41.30;;
12363;SDS011;6246;50.826;4.712;2024-03-17T11:00:42;51.07;;;38.97;;
12363;SDS011;6246;50.826;4.712;2024-03-17T11:03:10;47.90;;;38.93;;
12363;SDS011;6246;50.826;4.712;2024-03-17T11:05:36;48.60;;;38.93;;
12363;SDS011;6246;50.826;4.712;2024-03-17T11:08:02;47.40;;;37.37;;
12363;SDS011;6246;50.826;4.712;2024-03-17T11:10:30;50.70;;;37.83;;
12363;SDS011;6246;50.826;4.712;2024-03-17T11:12:57;47.87;;;37.03;;
12363;SDS011;6246;50.826;4.712;2024-03-17T11:20:34;45.07;;;35.00;;
12363;SDS011;6246;50.826;4.712;2024-03-17T11:23:00;43.07;;;34.23;;
12363;SDS011;6246;50.826;4.712;2024-03-17T11:41:46;64.70;;;34.43;;
12363;SDS011;6246;50.826;4.712;2024-03-17T11:46:43;62.93;;;35.70;;
12363;SDS011;6246;50.826;4.712;2024-03-17T11:49:31;60.63;;;35.17;;
12363;SDS011;6246;50.826;4.712;2024-03-17T11:51:56;57.27;;;36.70;;
12363;SDS011;6246;50.826;4.712;2024-03-17T11:54:23;57.70;;;37.10;;
12363;SDS011;6246;50.826;4.712;2024-03-17T11:56:52;59.70;;;36.20;;
12363;SDS011;6246;50.826;4.712;2024-03-17T11:59:19;72.97;;;39.03;;
12363;SDS011;6246;50.826;4.712;2024-03-17T12:01:45;56.60;;;37.57;;
12363;SDS011;6246;50.826;4.712;2024-03-17T12:04:12;54.60;;;35.70;;
12363;SDS011;6246;50.826;4.712;2024-03-17T12:06:39;56.20;;;38.77;;
12363;SDS011;6246;50.826;4.712;2024-03-17T12:09:24;56.20;;;36.83;;
12363;SDS011;6246;50.826;4.712;2024-03-17T12:11:59;56.07;;;37.10;;
12363;SDS011;6246;50.826;4.712;2024-03-17T12:14:26;48.27;;;34.17;;
12363;SDS011;6246;50.826;4.712;2024-03-17T12:16:53;47.27;;;34.60;;
12363;SDS011;6246;50.826;4.712;2024-03-17T12:19:19;47.23;;;33.10;;
12363;SDS011;6246;50.826;4.712;2024-03-17T12:21:55;44.93;;;31.47;;
12363;SDS011;6246;50.826;4.712;2024-03-17T12:24:22;42.00;;;31.83;;
12363;SDS011;6246;50.826;4.712;2024-03-17T12:26:50;41.80;;;29.50;;
12363;SDS011;6246;50.826;4.712;2024-03-17T12:31:50;39.70;;;27.70;;
12363;SDS011;6246;50.826;4.712;2024-03-17T12:34:18;40.70;;;27.83;;
12363;SDS011;6246;50.826;4.712;2024-03-17T12:36:44;38.43;;;26.13;;
12363;SDS011;6246;50.826;4.712;2024-03-17T12:39:32;41.07;;;26.63;;
12363;SDS011;6246;50.826;4.712;2024-03-17T12:42:03;32.87;;;26.00;;
12363;SDS011;6246;50.826;4.712;2024-03-17T12:44:30;35.13;;;25.37;;
12363;SDS011;6246;50.826;4.712;2024-03-17T12:46:57;35.10;;;24.93;;
12363;SDS011;6246;50.826;4.712;2024-03-17T12:49:25;35.23;;;25.00;;
12363;SDS011;6246;50.826;4.712;2024-03-17T12:51:51;31.47;;;23.70;;
12363;SDS011;6246;50.826;4.712;2024-03-17T12:54:21;31.77;;;23.50;;
12363;SDS011;6246;50.826;4.712;2024-03-17T12:56:48;33.40;;;23.13;;
12363;SDS011;6246;50.826;4.712;2024-03-17T12:59:36;29.40;;;21.30;;
12363;SDS011;6246;50.826;4.712;2024-03-17T13:02:21;32.40;;;21.30;;
12363;SDS011;6246;50.826;4.712;2024-03-17T13:05:04;29.60;;;21.13;;
12363;SDS011;6246;50.826;4.712;2024-03-17T13:07:30;28.50;;;20.70;;
12363;SDS011;6246;50.826;4.712;2024-03-17T13:09:56;30.97;;;20.20;;
12363;SDS011;6246;50.826;4.712;2024-03-17T13:12:22;28.23;;;20.27;;
12363;SDS011;6246;50.826;4.712;2024-03-17T13:14:48;29.00;;;20.73;;
12363;SDS011;6246;50.826;4.712;2024-03-17T13:17:15;25.83;;;18.93;;
12363;SDS011;6246;50.826;4.712;2024-03-17T13:19:45;27.10;;;20.03;;
12363;SDS011;6246;50.826;4.712;2024-03-17T13:22:11;24.13;;;18.30;;
12363;SDS011;6246;50.826;4.712;2024-03-17T13:24:38;26.40;;;18.57;;
12363;SDS011;6246;50.826;4.712;2024-03-17T13:27:04;25.93;;;18.60;;
12363;SDS011;6246;50.826;4.712;2024-03-17T13:29:34;30.67;;;17.97;;
12363;SDS011;6246;50.826;4.712;2024-03-17T13:32:04;28.27;;;17.93;;
12363;SDS011;6246;50.826;4.712;2024-03-17T13:34:30;25.30;;;18.43;;
12363;SDS011;6246;50.826;4.712;2024-03-17T13:36:57;22.77;;;17.33;;
12363;SDS011;6246;50.826;4.712;2024-03-17T13:39:32;21.93;;;16.73;;
12363;SDS011;6246;50.826;4.712;2024-03-17T13:41:58;20.90;;;16.07;;
12363;SDS011;6246;50.826;4.712;2024-03-17T13:44:31;25.70;;;17.33;;
12363;SDS011;6246;50.826;4.712;2024-03-17T13:46:57;23.53;;;16.23;;
12363;SDS011;6246;50.826;4.712;2024-03-17T13:49:24;37.30;;;17.43;;
12363;SDS011;6246;50.826;4.712;2024-03-17T13:51:50;28.13;;;17.37;;
12363;SDS011;6246;50.826;4.712;2024-03-17T13:54:17;29.07;;;16.43;;
12363;SDS011;6246;50.826;4.712;2024-03-17T13:56:43;27.07;;;17.53;;
12363;SDS011;6246;50.826;4.712;2024-03-17T13:59:12;26.07;;;17.87;;
12363;SDS011;6246;50.826;4.712;2024-03-17T14:01:38;25.27;;;17.77;;
12363;SDS011;6246;50.826;4.712;2024-03-17T14:04:04;22.53;;;16.70;;
12363;SDS011;6246;50.826;4.712;2024-03-17T14:06:30;28.20;;;17.33;;
12363;SDS011;6246;50.826;4.712;2024-03-17T14:08:56;27.47;;;18.17;;
12363;SDS011;6246;50.826;4.712;2024-03-17T14:11:22;28.57;;;17.77;;
12363;SDS011;6246;50.826;4.712;2024-03-17T14:13:48;27.53;;;17.70;;
12363;SDS011;6246;50.826;4.712;2024-03-17T14:16:15;25.47;;;18.50;;
12363;SDS011;6246;50.826;4.712;2024-03-17T14:18:41;41.13;;;20.60;;
12363;SDS011;6246;50.826;4.712;2024-03-17T14:21:08;27.03;;;19.57;;
12363;SDS011;6246;50.826;4.712;2024-03-17T14:23:35;29.43;;;19.33;;
12363;SDS011;6246;50.826;4.712;2024-03-17T14:26:02;27.47;;;19.03;;
12363;SDS011;6246;50.826;4.712;2024-03-17T14:28:29;26.07;;;18.07;;
12363;SDS011;6246;50.826;4.712;2024-03-17T14:30:55;27.33;;;18.93;;
12363;SDS011;6246;50.826;4.712;2024-03-17T14:33:21;30.17;;;20.33;;
12363;SDS011;6246;50.826;4.712;2024-03-17T14:35:55;29.20;;;19.63;;
12363;SDS011;6246;50.826;4.712;2024-03-17T14:38:22;24.73;;;18.60;;
12363;SDS011;6246;50.826;4.712;2024-03-17T14:40:50;31.03;;;19.87;;
12363;SDS011;6246;50.826;4.712;2024-03-17T14:43:16;27.47;;;19.33;;
12363;SDS011;6246;50.826;4.712;2024-03-17T14:45:42;24.80;;;19.10;;
12363;SDS011;6246;50.826;4.712;2024-03-17T14:48:08;27.63;;;18.57;;
12363;SDS011;6246;50.826;4.712;2024-03-17T14:50:34;28.53;;;19.07;;
12363;SDS011;6246;50.826;4.712;2024-03-17T14:53:01;23.63;;;17.43;;
12363;SDS011;6246;50.826;4.712;2024-03-17T14:55:27;21.83;;;16.27;;
12363;SDS011;6246;50.826;4.712;2024-03-17T14:57:56;22.63;;;18.30;;
12363;SDS011;6246;50.826;4.712;2024-03-17T15:00:22;27.90;;;17.83;;
12363;SDS011;6246;50.826;4.712;2024-03-17T15:02:51;24.17;;;18.40;;
12363;SDS011;6246;50.826;4.712;2024-03-17T15:05:17;21.90;;;16.63;;
12363;SDS011;6246;50.826;4.712;2024-03-17T15:07:44;22.43;;;17.40;;
12363;SDS011;6246;50.826;4.712;2024-03-17T15:10:10;22.50;;;17.40;;
12363;SDS011;6246;50.826;4.712;2024-03-17T15:12:37;277.47;;;197.70;;
12363;SDS011;6246;50.826;4.712;2024-03-17T15:15:05;156.00;;;98.70;;
12363;SDS011;6246;50.826;4.712;2024-03-17T15:17:33;122.43;;;77.57;;